< < Back
Terminal Aerodrome Forecast


Current Version              Previous Versions:   1  2  3  4  5  6  7  8  9  

Terminal Aerodrome Forecast

238
FTUS44 KMRX 212320
TAFTYS
TAF
KTYS 212320Z 2200/2224 24008KT P6SM VCTS SCT040CB BKN120
      TEMPO 2200/2203 4SM -SHRA BR BKN030 OVC050
     FM220300 34006KT P6SM SCT080 BKN250
     FM221400 02006KT P6SM SCT040=



Latest METAR

635
SAUS80 KWBC 221800 CCA
MTRTYS
METAR KTYS 221753Z 05009KT 10SM FEW045 FEW180 22/08 A3014 RMK AO2 SLP200
T02220078 10222 20139 56003


USA.gov is the U.S. government's official web portal to all federal, state and local government web resources and services.